St Solene — FVDG — position and weather

sailwx.info

Track history (hours):
 
Tides and Currents Weather Stations Pressure Air Temp Water Temp Dewpoint Dewpoint Depression Visibility Wind Speed Wind Dir Waves Ship Positions

St Solene

Last reported at 2016-Sep-27 23:22 UTC. Time now 2016-Sep-29 11:54 UTC.
Position N 43°18' E 004°59'.

Length 104 m; draft 6.5 m.

Type: Tanker. MMSI: 226302000.

Date/timePositionNaut miles runAvg speedWind from/ knotsBaromVisibWave heightAir tempDewpointWater temp
2016-Sep-27 23:22N 43°18' E 004°59'8 2.1
2016-Sep-27 19:29N 43°25' E 004°53'0 0.0
2016-Sep-27 14:29N 43°25' E 004°53'0 0.0
2016-Sep-27 13:32N 43°25' E 004°53'0 0.0
2016-Sep-27 10:27N 43°25' E 004°53'1 0.0
2016-Sep-26 20:07N 43°26' E 004°54'2 0.1
2016-Sep-26 02:28N 43°24' E 004°55'0 0.0
2016-Sep-26 01:28N 43°24' E 004°55'0 0.0
2016-Sep-26 00:31N 43°24' E 004°55'0 0.0
2016-Sep-25 21:31N 43°24' E 004°55'0 0.0
2016-Sep-25 17:25N 43°24' E 004°55'0 0.0
2016-Sep-25 16:31N 43°24' E 004°55'0 0.0
2016-Sep-25 15:28N 43°24' E 004°55'0 0.0
2016-Sep-25 14:28N 43°24' E 004°55'0 0.0
2016-Sep-25 12:31N 43°24' E 004°55'0 0.0
2016-Sep-25 11:31N 43°24' E 004°55'0 0.0
2016-Sep-25 10:31N 43°24' E 004°55'0 0.0
2016-Sep-25 09:25N 43°24' E 004°55'0 0.0
2016-Sep-25 07:31N 43°24' E 004°55'0 0.0
2016-Sep-25 04:31N 43°24' E 004°55'0 0.0
2016-Sep-25 00:31N 43°24' E 004°55'0 0.0
2016-Sep-24 22:31N 43°24' E 004°55'0 0.0
2016-Sep-24 21:31N 43°24' E 004°55'0 0.0
2016-Sep-24 19:33N 43°24' E 004°55'0 0.0
2016-Sep-24 18:33N 43°24' E 004°55'0 0.0
2016-Sep-24 17:33N 43°24' E 004°55'0 0.0
2016-Sep-24 16:33N 43°24' E 004°55'4 2.1
2016-Sep-24 14:33N 43°21' E 004°58'14 0.4
2016-Sep-23 04:18N 43°08' E 004°55'8 9.1
2016-Sep-23 03:28N 43°14' E 004°60'9 9.6
2016-Sep-23 02:33N 43°23' E 004°59'1 0.8
2016-Sep-23 01:31N 43°24' E 004°60'0 0.0
2016-Sep-23 00:31N 43°24' E 004°60'0 0.0
2016-Sep-22 23:31N 43°24' E 004°60'0 0.0
2016-Sep-22 20:31N 43°24' E 004°60'0 0.0
2016-Sep-22 12:31N 43°24' E 004°60'2 0.3
2016-Sep-22 04:31N 43°24' E 004°57'0 0.0
2016-Sep-22 03:31N 43°24' E 004°57'0 0.0
2016-Sep-22 00:31N 43°24' E 004°57'0 0.0
2016-Sep-21 23:31N 43°24' E 004°57'0 0.0
2016-Sep-21 22:31N 43°24' E 004°57'0 0.0
2016-Sep-21 19:31N 43°24' E 004°57'0 0.0
2016-Sep-21 16:31N 43°25' E 004°57'0 0.0
2016-Sep-21 09:31N 43°24' E 004°57'0 0.0
2016-Sep-21 08:31N 43°24' E 004°57'14 0.3
2016-Sep-19 12:32N 43°11' E 004°59'1111.6
2016-Sep-19 11:33N 43°22' E 004°58'2 0.9
2016-Sep-19 09:31N 43°24' E 004°60'0 0.0
2016-Sep-19 07:31N 43°24' E 004°60'0 0.0
2016-Sep-19 06:31N 43°24' E 004°60'0 0.0
2016-Sep-19 03:25N 43°24' E 004°60'0 0.0
2016-Sep-19 02:31N 43°24' E 004°60'0 0.0
2016-Sep-19 00:31N 43°24' E 004°60'0 0.0
2016-Sep-18 19:31N 43°24' E 004°60'0 0.0
2016-Sep-18 15:31N 43°24' E 004°60'0 0.0
2016-Sep-18 14:31N 43°24' E 004°60'0 0.1
2016-Sep-18 10:33N 43°24' E 004°59'2 2.1
2016-Sep-18 09:33N 43°25' E 004°57'0 0.0
2016-Sep-18 02:33N 43°25' E 004°57'0 0.0
2016-Sep-18 01:33N 43°25' E 004°57'0 0.0
2016-Sep-18 00:33N 43°25' E 004°57'  
Track history (hours):
 
Tides and Currents Weather Stations Pressure Air Temp Water Temp Dewpoint Dewpoint Depression Visibility Wind Speed Wind Dir Waves Ship Positions

St Solene

Last reported at 2016-Sep-27 23:22 UTC. Time now 2016-Sep-29 11:54 UTC.
Position N 43°18' E 004°59'.

Length 104 m; draft 6.5 m.

Type: Tanker. MMSI: 226302000.

Date/timePositionNaut miles runAvg speedWind from/ knotsBaromVisibWave heightAir tempDewpointWater temp
2016-Sep-27 23:22N 43°18' E 004°59'8 2.1
2016-Sep-27 19:29N 43°25' E 004°53'0 0.0
2016-Sep-27 14:29N 43°25' E 004°53'0 0.0
2016-Sep-27 13:32N 43°25' E 004°53'0 0.0
2016-Sep-27 10:27N 43°25' E 004°53'1 0.0
2016-Sep-26 20:07N 43°26' E 004°54'2 0.1
2016-Sep-26 02:28N 43°24' E 004°55'0 0.0
2016-Sep-26 01:28N 43°24' E 004°55'0 0.0
2016-Sep-26 00:31N 43°24' E 004°55'0 0.0
2016-Sep-25 21:31N 43°24' E 004°55'0 0.0
2016-Sep-25 17:25N 43°24' E 004°55'0 0.0
2016-Sep-25 16:31N 43°24' E 004°55'0 0.0
2016-Sep-25 15:28N 43°24' E 004°55'0 0.0
2016-Sep-25 14:28N 43°24' E 004°55'0 0.0
2016-Sep-25 12:31N 43°24' E 004°55'0 0.0
2016-Sep-25 11:31N 43°24' E 004°55'0 0.0
2016-Sep-25 10:31N 43°24' E 004°55'0 0.0
2016-Sep-25 09:25N 43°24' E 004°55'0 0.0
2016-Sep-25 07:31N 43°24' E 004°55'0 0.0
2016-Sep-25 04:31N 43°24' E 004°55'0 0.0
2016-Sep-25 00:31N 43°24' E 004°55'0 0.0
2016-Sep-24 22:31N 43°24' E 004°55'0 0.0
2016-Sep-24 21:31N 43°24' E 004°55'0 0.0
2016-Sep-24 19:33N 43°24' E 004°55'0 0.0
2016-Sep-24 18:33N 43°24' E 004°55'0 0.0
2016-Sep-24 17:33N 43°24' E 004°55'0 0.0
2016-Sep-24 16:33N 43°24' E 004°55'4 2.1
2016-Sep-24 14:33N 43°21' E 004°58'14 0.4
2016-Sep-23 04:18N 43°08' E 004°55'8 9.1
2016-Sep-23 03:28N 43°14' E 004°60'9 9.6
2016-Sep-23 02:33N 43°23' E 004°59'1 0.8
2016-Sep-23 01:31N 43°24' E 004°60'0 0.0
2016-Sep-23 00:31N 43°24' E 004°60'0 0.0
2016-Sep-22 23:31N 43°24' E 004°60'0 0.0
2016-Sep-22 20:31N 43°24' E 004°60'0 0.0
2016-Sep-22 12:31N 43°24' E 004°60'2 0.3
2016-Sep-22 04:31N 43°24' E 004°57'0 0.0
2016-Sep-22 03:31N 43°24' E 004°57'0 0.0
2016-Sep-22 00:31N 43°24' E 004°57'0 0.0
2016-Sep-21 23:31N 43°24' E 004°57'0 0.0
2016-Sep-21 22:31N 43°24' E 004°57'0 0.0
2016-Sep-21 19:31N 43°24' E 004°57'0 0.0
2016-Sep-21 16:31N 43°25' E 004°57'0 0.0
2016-Sep-21 09:31N 43°24' E 004°57'0 0.0
2016-Sep-21 08:31N 43°24' E 004°57'14 0.3
2016-Sep-19 12:32N 43°11' E 004°59'1111.6
2016-Sep-19 11:33N 43°22' E 004°58'2 0.9
2016-Sep-19 09:31N 43°24' E 004°60'0 0.0
2016-Sep-19 07:31N 43°24' E 004°60'0 0.0
2016-Sep-19 06:31N 43°24' E 004°60'0 0.0
2016-Sep-19 03:25N 43°24' E 004°60'0 0.0
2016-Sep-19 02:31N 43°24' E 004°60'0 0.0
2016-Sep-19 00:31N 43°24' E 004°60'0 0.0
2016-Sep-18 19:31N 43°24' E 004°60'0 0.0
2016-Sep-18 15:31N 43°24' E 004°60'0 0.0
2016-Sep-18 14:31N 43°24' E 004°60'0 0.1
2016-Sep-18 10:33N 43°24' E 004°59'2 2.1
2016-Sep-18 09:33N 43°25' E 004°57'0 0.0
2016-Sep-18 02:33N 43°25' E 004°57'0 0.0
2016-Sep-18 01:33N 43°25' E 004°57'0 0.0
2016-Sep-18 00:33N 43°25' E 004°57'  

Dump ship's entire track history